Eurocargo Palermo — IBAU — position and weather

sailwx.info

Track history (hours):
 
Tides and Currents Weather Stations Pressure Air Temp Water Temp Dewpoint Dewpoint Depression Visibility Wind Speed Wind Dir Waves Ship Positions

Eurocargo Palermo

Last reported at 2018-Jan-21 11:22 UTC. Time now 2018-Jan-21 15:00 UTC.
Position N 41°26' E 002°41'.

Length 200 m; draft 7.6 m.

Type: Cargo ship. MMSI: 247241800.

Date/timePositionNaut miles runAvg speedWind from/ knotsBaromVisibWave heightAir tempDewpointWater temp
2018-Jan-21 11:22N 41°26' E 002°41'720.0
2018-Jan-21 11:00N 41°21' E 002°34'1019.8
2018-Jan-21 10:30N 41°14' E 002°25'1019.7
2018-Jan-21 10:00N 41°08' E 002°15'1020.1
2018-Jan-21 09:30N 41°01' E 002°05'1019.1
2018-Jan-21 08:59N 40°55' E 001°55'12117.6
2018-Jan-21 02:07N 39°35' W 000°04'218.1
2018-Jan-21 02:00N 39°33' W 000°06'918.1
2018-Jan-21 01:30N 39°27' W 000°15'3 2.8
2018-Jan-21 00:26N 39°27' W 000°18'0 0.0
2018-Jan-20 23:38N 39°27' W 000°18'0 0.0
2018-Jan-20 23:29N 39°27' W 000°18'0 0.0
2018-Jan-20 22:38N 39°27' W 000°18'0 0.0
2018-Jan-20 22:14N 39°27' W 000°18'0 0.0
2018-Jan-20 21:50N 39°27' W 000°18'0 0.0
2018-Jan-20 16:44N 39°27' W 000°18'0 0.0
2018-Jan-20 16:26N 39°27' W 000°18'0 0.0
2018-Jan-20 13:44N 39°27' W 000°18'0 0.0
2018-Jan-20 12:17N 39°27' W 000°18'1 4.0
2018-Jan-20 12:00N 39°26' W 000°18'3 6.7
2018-Jan-20 11:30N 39°26' W 000°13'5 9.8
2018-Jan-20 10:59N 39°29' W 000°08'4 8.9
2018-Jan-20 10:30N 39°32' W 000°04'13618.4
2018-Jan-20 03:06N 41°02' E 002°10'319.0
2018-Jan-20 02:56N 41°04' E 002°13'819.8
2018-Jan-20 02:30N 41°10' E 002°21'1019.4
2018-Jan-20 02:00N 41°16' E 002°31'23018.8
2018-Jan-19 13:45N 43°12' E 006°59'518.9
2018-Jan-19 13:31N 43°15' E 007°04'918.7
2018-Jan-19 13:00N 43°21' E 007°14'918.3
2018-Jan-19 12:30N 43°27' E 007°24'5519.0
2018-Jan-19 09:37N 44°03' E 008°21'322.5
2018-Jan-19 09:30N 44°05' E 008°23'1121.6
2018-Jan-19 09:01N 44°14' E 008°31'5 9.2
2018-Jan-19 08:27N 44°19' E 008°30'0 0.0
2018-Jan-19 07:57N 44°19' E 008°30'0 0.0
2018-Jan-19 07:27N 44°19' E 008°30'0 0.0
2018-Jan-19 06:57N 44°19' E 008°30'0 0.0
2018-Jan-19 06:27N 44°19' E 008°30'0 0.0
2018-Jan-19 06:00N 44°19' E 008°30'0 0.0
2018-Jan-19 05:27N 44°19' E 008°30'0 0.0
2018-Jan-19 05:00N 44°19' E 008°30'0 0.0
2018-Jan-19 04:30N 44°19' E 008°30'0 0.0
2018-Jan-19 04:00N 44°19' E 008°30'0 0.0
2018-Jan-19 03:30N 44°19' E 008°30'0 0.0
2018-Jan-19 03:00N 44°19' E 008°30'0 0.0
2018-Jan-19 02:27N 44°19' E 008°30'0 0.0
2018-Jan-19 01:57N 44°19' E 008°30'1 2.1
2018-Jan-19 01:30N 44°19' E 008°31'713.9
2018-Jan-19 01:00N 44°16' E 008°40'1020.8
2018-Jan-19 00:30N 44°12' E 008°53'1121.5
2018-Jan-19 00:00N 44°07' E 009°07'1121.3
2018-Jan-18 23:30N 44°03' E 009°20'1020.8
2018-Jan-18 23:00N 43°56' E 009°32'1020.2
2018-Jan-18 22:30N 43°50' E 009°42'1019.6
2018-Jan-18 22:00N 43°42' E 009°51'917.0
2018-Jan-18 21:30N 43°34' E 009°56'714.5
2018-Jan-18 21:00N 43°31' E 010°05'714.8
2018-Jan-18 20:30N 43°32' E 010°15'4 7.3
2018-Jan-18 20:00N 43°34' E 010°18'1 1.4
2018-Jan-18 19:30N 43°35' E 010°19'0 0.0
2018-Jan-18 19:00N 43°35' E 010°19'0 0.0
2018-Jan-18 18:30N 43°35' E 010°19'0 0.0
2018-Jan-18 18:00N 43°35' E 010°19'0 0.0
2018-Jan-18 17:30N 43°35' E 010°19'0 0.0
2018-Jan-18 17:00N 43°35' E 010°19'0 0.0
2018-Jan-18 16:30N 43°35' E 010°19'0 0.0
2018-Jan-18 16:00N 43°35' E 010°19'0 0.0
2018-Jan-18 15:30N 43°35' E 010°19'0 0.0
2018-Jan-18 14:57N 43°35' E 010°19'0 0.0
2018-Jan-18 14:30N 43°35' E 010°19'0 0.0
2018-Jan-18 14:00N 43°35' E 010°19'0 0.0
2018-Jan-18 13:30N 43°35' E 010°19'0 0.0
2018-Jan-18 13:00N 43°35' E 010°19'0 0.0
2018-Jan-18 12:27N 43°35' E 010°19'0 0.0
2018-Jan-18 11:51N 43°35' E 010°19'0 0.0
2018-Jan-18 11:30N 43°35' E 010°19'3 5.2
2018-Jan-18 10:55N 43°32' E 010°17'3 7.9
2018-Jan-18 10:29N 43°30' E 010°13'1 2.6
2018-Jan-18 10:00N 43°29' E 010°12'  
2018-Jan-12 11:10N 39°34' W 000°05'321.1
2018-Jan-12 11:01N 39°31' W 000°08'  
Track history (hours):
 
Tides and Currents Weather Stations Pressure Air Temp Water Temp Dewpoint Dewpoint Depression Visibility Wind Speed Wind Dir Waves Ship Positions

Eurocargo Palermo

Last reported at 2018-Jan-21 11:22 UTC. Time now 2018-Jan-21 15:00 UTC.
Position N 41°26' E 002°41'.

Length 200 m; draft 7.6 m.

Type: Cargo ship. MMSI: 247241800.

Date/timePositionNaut miles runAvg speedWind from/ knotsBaromVisibWave heightAir tempDewpointWater temp
2018-Jan-21 11:22N 41°26' E 002°41'720.0
2018-Jan-21 11:00N 41°21' E 002°34'1019.8
2018-Jan-21 10:30N 41°14' E 002°25'1019.7
2018-Jan-21 10:00N 41°08' E 002°15'1020.1
2018-Jan-21 09:30N 41°01' E 002°05'1019.1
2018-Jan-21 08:59N 40°55' E 001°55'12117.6
2018-Jan-21 02:07N 39°35' W 000°04'218.1
2018-Jan-21 02:00N 39°33' W 000°06'918.1
2018-Jan-21 01:30N 39°27' W 000°15'3 2.8
2018-Jan-21 00:26N 39°27' W 000°18'0 0.0
2018-Jan-20 23:38N 39°27' W 000°18'0 0.0
2018-Jan-20 23:29N 39°27' W 000°18'0 0.0
2018-Jan-20 22:38N 39°27' W 000°18'0 0.0
2018-Jan-20 22:14N 39°27' W 000°18'0 0.0
2018-Jan-20 21:50N 39°27' W 000°18'0 0.0
2018-Jan-20 16:44N 39°27' W 000°18'0 0.0
2018-Jan-20 16:26N 39°27' W 000°18'0 0.0
2018-Jan-20 13:44N 39°27' W 000°18'0 0.0
2018-Jan-20 12:17N 39°27' W 000°18'1 4.0
2018-Jan-20 12:00N 39°26' W 000°18'3 6.7
2018-Jan-20 11:30N 39°26' W 000°13'5 9.8
2018-Jan-20 10:59N 39°29' W 000°08'4 8.9
2018-Jan-20 10:30N 39°32' W 000°04'13618.4
2018-Jan-20 03:06N 41°02' E 002°10'319.0
2018-Jan-20 02:56N 41°04' E 002°13'819.8
2018-Jan-20 02:30N 41°10' E 002°21'1019.4
2018-Jan-20 02:00N 41°16' E 002°31'23018.8
2018-Jan-19 13:45N 43°12' E 006°59'518.9
2018-Jan-19 13:31N 43°15' E 007°04'918.7
2018-Jan-19 13:00N 43°21' E 007°14'918.3
2018-Jan-19 12:30N 43°27' E 007°24'5519.0
2018-Jan-19 09:37N 44°03' E 008°21'322.5
2018-Jan-19 09:30N 44°05' E 008°23'1121.6
2018-Jan-19 09:01N 44°14' E 008°31'5 9.2
2018-Jan-19 08:27N 44°19' E 008°30'0 0.0
2018-Jan-19 07:57N 44°19' E 008°30'0 0.0
2018-Jan-19 07:27N 44°19' E 008°30'0 0.0
2018-Jan-19 06:57N 44°19' E 008°30'0 0.0
2018-Jan-19 06:27N 44°19' E 008°30'0 0.0
2018-Jan-19 06:00N 44°19' E 008°30'0 0.0
2018-Jan-19 05:27N 44°19' E 008°30'0 0.0
2018-Jan-19 05:00N 44°19' E 008°30'0 0.0
2018-Jan-19 04:30N 44°19' E 008°30'0 0.0
2018-Jan-19 04:00N 44°19' E 008°30'0 0.0
2018-Jan-19 03:30N 44°19' E 008°30'0 0.0
2018-Jan-19 03:00N 44°19' E 008°30'0 0.0
2018-Jan-19 02:27N 44°19' E 008°30'0 0.0
2018-Jan-19 01:57N 44°19' E 008°30'1 2.1
2018-Jan-19 01:30N 44°19' E 008°31'713.9
2018-Jan-19 01:00N 44°16' E 008°40'1020.8
2018-Jan-19 00:30N 44°12' E 008°53'1121.5
2018-Jan-19 00:00N 44°07' E 009°07'1121.3
2018-Jan-18 23:30N 44°03' E 009°20'1020.8
2018-Jan-18 23:00N 43°56' E 009°32'1020.2
2018-Jan-18 22:30N 43°50' E 009°42'1019.6
2018-Jan-18 22:00N 43°42' E 009°51'917.0
2018-Jan-18 21:30N 43°34' E 009°56'714.5
2018-Jan-18 21:00N 43°31' E 010°05'714.8
2018-Jan-18 20:30N 43°32' E 010°15'4 7.3
2018-Jan-18 20:00N 43°34' E 010°18'1 1.4
2018-Jan-18 19:30N 43°35' E 010°19'0 0.0
2018-Jan-18 19:00N 43°35' E 010°19'0 0.0
2018-Jan-18 18:30N 43°35' E 010°19'0 0.0
2018-Jan-18 18:00N 43°35' E 010°19'0 0.0
2018-Jan-18 17:30N 43°35' E 010°19'0 0.0
2018-Jan-18 17:00N 43°35' E 010°19'0 0.0
2018-Jan-18 16:30N 43°35' E 010°19'0 0.0
2018-Jan-18 16:00N 43°35' E 010°19'0 0.0
2018-Jan-18 15:30N 43°35' E 010°19'0 0.0
2018-Jan-18 14:57N 43°35' E 010°19'0 0.0
2018-Jan-18 14:30N 43°35' E 010°19'0 0.0
2018-Jan-18 14:00N 43°35' E 010°19'0 0.0
2018-Jan-18 13:30N 43°35' E 010°19'0 0.0
2018-Jan-18 13:00N 43°35' E 010°19'0 0.0
2018-Jan-18 12:27N 43°35' E 010°19'0 0.0
2018-Jan-18 11:51N 43°35' E 010°19'0 0.0
2018-Jan-18 11:30N 43°35' E 010°19'3 5.2
2018-Jan-18 10:55N 43°32' E 010°17'3 7.9
2018-Jan-18 10:29N 43°30' E 010°13'1 2.6
2018-Jan-18 10:00N 43°29' E 010°12'  
2018-Jan-12 11:10N 39°34' W 000°05'321.1
2018-Jan-12 11:01N 39°31' W 000°08'  

Dump ship's entire track history